Larvik — C6VC2 — position and weather

sailwx.info

Track history (hours):
 
Tides and Currents Weather Stations Pressure Air Temp Water Temp Dewpoint Dewpoint Depression Visibility Wind Speed Wind Dir Waves Ship Positions

Larvik

Last reported at 2015-Jun-25 23:25 UTC. Time now 2015-Jul-02 23:05 UTC.
Position N 59°30' W 003°37'.

Length 214 m; draft 12.1 m.

Type: Tanker. MMSI: 308371000.

Date/timePositionNaut miles runAvg speedWind from/ knotsBaromVisibWave heightAir tempDewpointWater temp
2015-Jun-25 23:25N 59°30' W 003°37'45910.7
2015-Jun-24 04:29N 57°50' E 010°44'8 8.6
2015-Jun-24 03:33N 57°44' E 010°55'1110.7
2015-Jun-24 02:33N 57°37' E 011°09'1111.3
2015-Jun-24 01:33N 57°29' E 011°25'1111.3
2015-Jun-24 00:33N 57°19' E 011°32'1111.1
2015-Jun-23 23:33N 57°08' E 011°39'1110.9
2015-Jun-23 22:33N 56°58' E 011°46'1111.3
2015-Jun-23 21:33N 56°47' E 011°52'1111.1
2015-Jun-23 20:33N 56°36' E 011°45'118 4.7
2015-Jun-22 19:33N 55°25' E 014°34'1211.4
2015-Jun-22 18:33N 55°31' E 014°51'1212.0
2015-Jun-22 17:33N 55°37' E 015°10'1211.5
2015-Jun-22 16:32N 55°41' E 015°29'1211.3
2015-Jun-22 15:29N 55°43' E 015°49'28410.9
2015-Jun-21 13:31N 59°13' E 021°47'1111.8
2015-Jun-21 12:33N 59°20' E 022°04'1211.7
2015-Jun-21 11:33N 59°27' E 022°22'2411.5
2015-Jun-21 09:29N 59°35' E 023°06'1111.6
2015-Jun-21 08:33N 59°38' E 023°26'1211.7
2015-Jun-21 07:33N 59°42' E 023°49'2411.6
2015-Jun-21 05:29N 59°48' E 024°35'3511.6
2015-Jun-21 02:26N 59°55' E 025°44'8 9.5
2015-Jun-21 01:33N 59°53' E 026°00'1211.5
2015-Jun-21 00:33N 59°53' E 026°23'1111.0
2015-Jun-20 23:33N 59°46' E 026°40'15 0.3
2015-Jun-18 22:20N 59°52' E 026°13'4912.9
2015-Jun-18 18:33N 59°44' E 024°38'1913.0
2015-Jun-18 17:04N 59°39' E 024°01'713.3
2015-Jun-18 16:33N 59°37' E 023°48'1613.4
2015-Jun-18 15:23N 59°32' E 023°18'33812.9
2015-Jun-17 13:10N 55°39' E 015°44'813.9
2015-Jun-17 12:33N 55°36' E 015°29'1414.0
2015-Jun-17 11:33N 55°31' E 015°07'1413.8
2015-Jun-17 10:33N 55°25' E 014°45'1313.4
2015-Jun-17 09:34N 55°16' E 014°27'1313.1
2015-Jun-17 08:33N 55°10' E 014°07'1413.9
2015-Jun-17 07:33N 55°10' E 013°43'1413.8
2015-Jun-17 06:33N 55°10' E 013°19'1413.6
2015-Jun-17 05:33N 55°14' E 012°56'1212.2
2015-Jun-17 04:33N 55°21' E 012°38'1212.1
2015-Jun-17 03:33N 55°33' E 012°42'1110.5
2015-Jun-17 02:33N 55°44' E 012°41'1312.6
2015-Jun-17 01:33N 55°56' E 012°39'1111.1
2015-Jun-17 00:33N 56°06' E 012°32'1010.0
2015-Jun-16 23:31N 56°13' E 012°17'4012.1
2015-Jun-16 20:10N 56°50' E 011°49'2613.6
2015-Jun-16 18:15N 57°15' E 011°33'1213.8
2015-Jun-16 17:23N 57°25' E 011°23'1213.5
2015-Jun-16 16:31N 57°34' E 011°08'1313.9
2015-Jun-16 15:33N 57°41' E 010°47'3 0.3
2015-Jun-16 06:33N 57°44' E 010°45'  
Track history (hours):
 
Tides and Currents Weather Stations Pressure Air Temp Water Temp Dewpoint Dewpoint Depression Visibility Wind Speed Wind Dir Waves Ship Positions

Larvik

Last reported at 2015-Jun-25 23:25 UTC. Time now 2015-Jul-02 23:05 UTC.
Position N 59°30' W 003°37'.

Length 214 m; draft 12.1 m.

Type: Tanker. MMSI: 308371000.

Date/timePositionNaut miles runAvg speedWind from/ knotsBaromVisibWave heightAir tempDewpointWater temp
2015-Jun-25 23:25N 59°30' W 003°37'45910.7
2015-Jun-24 04:29N 57°50' E 010°44'8 8.6
2015-Jun-24 03:33N 57°44' E 010°55'1110.7
2015-Jun-24 02:33N 57°37' E 011°09'1111.3
2015-Jun-24 01:33N 57°29' E 011°25'1111.3
2015-Jun-24 00:33N 57°19' E 011°32'1111.1
2015-Jun-23 23:33N 57°08' E 011°39'1110.9
2015-Jun-23 22:33N 56°58' E 011°46'1111.3
2015-Jun-23 21:33N 56°47' E 011°52'1111.1
2015-Jun-23 20:33N 56°36' E 011°45'118 4.7
2015-Jun-22 19:33N 55°25' E 014°34'1211.4
2015-Jun-22 18:33N 55°31' E 014°51'1212.0
2015-Jun-22 17:33N 55°37' E 015°10'1211.5
2015-Jun-22 16:32N 55°41' E 015°29'1211.3
2015-Jun-22 15:29N 55°43' E 015°49'28410.9
2015-Jun-21 13:31N 59°13' E 021°47'1111.8
2015-Jun-21 12:33N 59°20' E 022°04'1211.7
2015-Jun-21 11:33N 59°27' E 022°22'2411.5
2015-Jun-21 09:29N 59°35' E 023°06'1111.6
2015-Jun-21 08:33N 59°38' E 023°26'1211.7
2015-Jun-21 07:33N 59°42' E 023°49'2411.6
2015-Jun-21 05:29N 59°48' E 024°35'3511.6
2015-Jun-21 02:26N 59°55' E 025°44'8 9.5
2015-Jun-21 01:33N 59°53' E 026°00'1211.5
2015-Jun-21 00:33N 59°53' E 026°23'1111.0
2015-Jun-20 23:33N 59°46' E 026°40'15 0.3
2015-Jun-18 22:20N 59°52' E 026°13'4912.9
2015-Jun-18 18:33N 59°44' E 024°38'1913.0
2015-Jun-18 17:04N 59°39' E 024°01'713.3
2015-Jun-18 16:33N 59°37' E 023°48'1613.4
2015-Jun-18 15:23N 59°32' E 023°18'33812.9
2015-Jun-17 13:10N 55°39' E 015°44'813.9
2015-Jun-17 12:33N 55°36' E 015°29'1414.0
2015-Jun-17 11:33N 55°31' E 015°07'1413.8
2015-Jun-17 10:33N 55°25' E 014°45'1313.4
2015-Jun-17 09:34N 55°16' E 014°27'1313.1
2015-Jun-17 08:33N 55°10' E 014°07'1413.9
2015-Jun-17 07:33N 55°10' E 013°43'1413.8
2015-Jun-17 06:33N 55°10' E 013°19'1413.6
2015-Jun-17 05:33N 55°14' E 012°56'1212.2
2015-Jun-17 04:33N 55°21' E 012°38'1212.1
2015-Jun-17 03:33N 55°33' E 012°42'1110.5
2015-Jun-17 02:33N 55°44' E 012°41'1312.6
2015-Jun-17 01:33N 55°56' E 012°39'1111.1
2015-Jun-17 00:33N 56°06' E 012°32'1010.0
2015-Jun-16 23:31N 56°13' E 012°17'4012.1
2015-Jun-16 20:10N 56°50' E 011°49'2613.6
2015-Jun-16 18:15N 57°15' E 011°33'1213.8
2015-Jun-16 17:23N 57°25' E 011°23'1213.5
2015-Jun-16 16:31N 57°34' E 011°08'1313.9
2015-Jun-16 15:33N 57°41' E 010°47'3 0.3
2015-Jun-16 06:33N 57°44' E 010°45'  

Dump ship's entire track history